Clearfield, Iowa
Current Conditions -  °F | °C
As of 7:55 AM on Monday 24 Nov 2014 (Local Time) from KCSQ Reporting Station
Overcast Overcast  
Wind Chill:   Ceiling: 2100
Heat Index: 25°   Visibility: 10mi
Dew Point: 19°   Wind: 24mph
Humidity: 80%   Direction: 310°NW
Pressure: 29.56"   Gusts: 32mph
Location:  40.8°N, 94.48°W
Report Text: KCSQ 241355Z AUTO 31021G28KT 10SM BKN021 OVC033 M04/M07 A2956 RMK AO2
Loading
Personal Weather Stations






























Interactive Weather Map New forecast layout! Learn more

10-Day Weather Forecast

Advertisements
Track Severe Weather on mobile